Portada
METAR-TAF:

METAR-TAF

Aeropuertos :

El Aaiún, Marruecos

Aeropuerto Internacional Hassan I

latitud: 27-10N, longitud: 013-12-59W, altitud: 6 m

Observación

El informe se hizo hace 35 minutos, a las 06:00 UTC
Viento 11 kt del noreste
Temperatura 21°C
Humedad 94%
Presión 1015 hPa
Visibilidad: 6000 m

METAR: GMML 240600Z 05011KT 6000 NSC 21/20 Q1015 NOSIG

Hora: 07:35 (06:35 UTC)

Pronóstico

El informe se hizo hace 1 hora y 35 minutos, a las 05:00 UTC
Pronóstico válido del 24 a las 06 UTC al 25 a las 12 UTC
Viento 7 kt del noreste
Visibilidad: 8000 m

TAF: GMML 240500Z 2406/2512 04007KT 8000 NSC

Observaciones y pronósticos meteorológicos de más de 4000 aeropuertos (mensajes METAR y TAF).

Los puntos amarillos y rojos representan las estaciones disponibles.

Ponga el ratón en el punto deseado para ver el nombre de la estación.

Haga clic para ver las observaciones y los pronósticos meteorológicos.

Para cambiar el mapa : haga clic en los botones verdes con una cruz de color negro para hacer un zoom, en el botón verde con un guión para alejar o en las flechas verdes para mapas adyacentes.


METAR-TAF: